Time;durP1;ratioP1;P1;durP2;ratioP2;P2;SDS_P1;SDS_P2;PMS_P1;PMS_P2;Temp;Humidity;BMP_temperature;BMP_pressure;BME280_temperature;BME280_humidity;BME280_pressure;Samples;Min_cycle;Max_cycle;Signal;HPM_P1;HPM_P2
2022/01/06 00:01:00;;;;;;;2.37;1.30;;;3.50;99.90;;;;;;5058978;28;20622;-73
2022/01/06 00:03:27;;;;;;;3.60;1.00;;;3.50;99.90;;;;;;5043133;28;20959;-73
2022/01/06 00:05:54;;;;;;;1.80;0.83;;;3.50;99.90;;;;;;5039621;28;20603;-72
2022/01/06 00:08:19;;;;;;;1.17;0.90;;;3.50;99.90;;;;;;5043473;28;20638;-72
2022/01/06 00:10:47;;;;;;;1.20;1.10;;;3.50;99.90;;;;;;5026738;28;21236;-72
2022/01/06 00:13:16;;;;;;;3.27;0.77;;;3.50;99.90;;;;;;5047535;28;20191;-72
2022/01/06 00:23:31;;;;;;;1.87;0.80;;;3.40;99.90;;;;;;5046560;28;20198;-72
2022/01/06 00:26:01;;;;;;;1.23;0.83;;;3.30;99.90;;;;;;5043270;28;20591;-72
2022/01/06 00:28:27;;;;;;;1.30;0.97;;;3.30;99.90;;;;;;5036884;28;20707;-72
2022/01/06 00:30:52;;;;;;;2.07;1.20;;;3.30;99.90;;;;;;5033619;28;20642;-72
2022/01/06 00:33:21;;;;;;;3.53;1.10;;;3.30;99.90;;;;;;5026469;28;20199;-72
2022/01/06 00:35:46;;;;;;;2.50;1.00;;;3.20;99.90;;;;;;5047400;28;20621;-72
2022/01/06 00:38:12;;;;;;;1.33;1.10;;;3.20;99.90;;;;;;5042249;28;20662;-73
2022/01/06 00:40:38;;;;;;;1.47;1.17;;;3.20;99.90;;;;;;5044956;28;20624;-72
2022/01/06 00:43:08;;;;;;;1.17;1.00;;;3.20;99.90;;;;;;5060075;28;20180;-72
2022/01/06 00:45:36;;;;;;;2.03;0.90;;;3.10;99.90;;;;;;5046049;28;20625;-72
2022/01/06 00:48:02;;;;;;;1.20;1.00;;;3.20;99.90;;;;;;5025866;28;20868;-72
2022/01/06 00:50:30;;;;;;;2.60;1.03;;;3.10;99.90;;;;;;5042376;28;20706;-72
2022/01/06 00:53:00;;;;;;;3.97;1.00;;;3.10;99.90;;;;;;5045117;28;20697;-72
2022/01/06 00:55:25;;;;;;;1.83;1.07;;;3.10;99.90;;;;;;5026897;28;20988;-72
2022/01/06 00:57:55;;;;;;;1.40;1.10;;;3.10;99.90;;;;;;5043903;28;20666;-73
2022/01/06 01:00:22;;;;;;;3.83;0.93;;;3.10;99.90;;;;;;5037137;28;20593;-72
2022/01/06 01:02:48;;;;;;;0.90;0.90;;;3.10;99.90;;;;;;5043915;28;20614;-72
2022/01/06 01:05:14;;;;;;;1.60;1.10;;;3.00;99.90;;;;;;5045773;28;20679;-72
2022/01/06 01:07:40;;;;;;;1.40;1.03;;;3.00;99.90;;;;;;5022678;28;20227;-72
2022/01/06 01:10:06;;;;;;;3.87;1.00;;;3.00;99.90;;;;;;5026712;28;20642;-72
2022/01/06 01:12:32;;;;;;;2.23;1.00;;;3.00;99.90;;;;;;5025951;28;20203;-72
2022/01/06 01:15:05;;;;;;;1.80;1.10;;;3.00;99.90;;;;;;5042542;28;20630;-72
2022/01/06 01:17:31;;;;;;;2.10;1.13;;;3.00;99.90;;;;;;5019790;28;20208;-73
2022/01/06 01:19:57;;;;;;;1.10;1.00;;;2.70;99.90;;;;;;5040167;28;20625;-72
2022/01/06 01:22:22;;;;;;;2.00;1.40;;;2.90;99.90;;;;;;5043621;28;20598;-72
2022/01/06 01:24:48;;;;;;;2.40;1.10;;;2.90;99.90;;;;;;5027446;28;20188;-72
2022/01/06 01:27:20;;;;;;;3.50;1.37;;;2.80;99.90;;;;;;5039461;28;20535;-72
2022/01/06 01:30:02;;;;;;;1.93;1.30;;;2.80;99.90;;;;;;5023847;28;20352;-72
2022/01/06 01:32:35;;;;;;;4.60;1.50;;;2.80;99.90;;;;;;5041663;28;21112;-72
2022/01/06 01:35:02;;;;;;;1.70;1.20;;;2.70;99.90;;;;;;5056743;28;20634;-73
2022/01/06 01:37:29;;;;;;;2.30;1.23;;;2.70;99.90;;;;;;5043135;28;20669;-73
2022/01/06 01:39:57;;;;;;;1.73;1.00;;;2.70;99.90;;;;;;5041144;28;20630;-72
2022/01/06 01:42:23;;;;;;;2.53;1.27;;;2.70;99.90;;;;;;5042366;28;20685;-73
2022/01/06 01:44:52;;;;;;;5.73;1.47;;;2.80;99.90;;;;;;5041238;28;20722;-73
2022/01/06 01:47:39;;;;;;;2.57;1.20;;;2.70;99.90;;;;;;5026264;28;22334;-73
2022/01/06 01:50:13;;;;;;;5.10;1.37;;;2.60;99.90;;;;;;5038954;28;20642;-72
2022/01/06 01:52:43;;;;;;;1.77;1.20;;;2.60;99.90;;;;;;5014729;28;20696;-72
2022/01/06 01:55:14;;;;;;;3.20;1.23;;;2.60;99.90;;;;;;5025019;28;21228;-73
2022/01/06 01:57:40;;;;;;;2.73;1.23;;;2.60;99.90;;;;;;5043963;28;20756;-72
2022/01/06 02:00:11;;;;;;;3.37;1.30;;;2.60;99.90;;;;;;5023664;28;20776;-72
2022/01/06 02:02:41;;;;;;;4.93;1.13;;;2.60;99.90;;;;;;5041869;28;20998;-72
2022/01/06 02:05:07;;;;;;;3.27;1.30;;;2.60;99.90;;;;;;5025651;28;20621;-72
2022/01/06 02:07:39;;;;;;;2.40;1.50;;;2.60;99.90;;;;;;5060343;28;20748;-72
2022/01/06 02:10:05;;;;;;;2.27;1.10;;;2.50;99.90;;;;;;5026638;28;20668;-72
2022/01/06 02:12:37;;;;;;;2.93;1.23;;;2.50;99.90;;;;;;5044477;28;20738;-71
2022/01/06 02:15:07;;;;;;;1.40;1.20;;;2.50;99.90;;;;;;5030311;28;20788;-72
2022/01/06 02:17:36;;;;;;;1.40;1.23;;;2.50;99.90;;;;;;5047911;28;20677;-72
2022/01/06 02:20:09;;;;;;;2.10;1.00;;;2.50;99.90;;;;;;5060432;28;20643;-73
2022/01/06 02:22:35;;;;;;;2.50;1.20;;;2.20;99.90;;;;;;5045006;28;21171;-72
2022/01/06 02:25:14;;;;;;;3.63;1.40;;;2.40;99.90;;;;;;5030427;28;20614;-72
2022/01/06 02:27:40;;;;;;;1.40;1.00;;;2.40;99.90;;;;;;5032231;28;20265;-72
2022/01/06 02:30:08;;;;;;;2.70;1.10;;;2.40;99.90;;;;;;5032092;28;20635;-73
2022/01/06 02:32:36;;;;;;;3.47;1.33;;;2.30;99.90;;;;;;5048695;28;21404;-72
2022/01/06 02:35:07;;;;;;;4.00;1.50;;;2.30;99.90;;;;;;5048113;28;20611;-73
2022/01/06 02:37:33;;;;;;;1.77;1.40;;;2.30;99.90;;;;;;5046296;28;20653;-72
2022/01/06 02:40:05;;;;;;;2.63;1.30;;;2.30;99.90;;;;;;5023953;28;20646;-73
2022/01/06 02:42:33;;;;;;;2.50;1.47;;;2.30;99.90;;;;;;5046187;28;20267;-73
2022/01/06 02:44:59;;;;;;;5.10;1.43;;;2.20;99.90;;;;;;5048576;28;20606;-73
2022/01/06 02:47:25;;;;;;;2.77;1.23;;;2.20;99.90;;;;;;5048887;28;20635;-72
2022/01/06 02:49:50;;;;;;;1.30;1.20;;;2.20;99.90;;;;;;5045765;28;20259;-73
2022/01/06 02:52:16;;;;;;;2.93;1.47;;;2.20;99.90;;;;;;5047825;28;20192;-72
2022/01/06 02:54:49;;;;;;;1.50;1.00;;;2.20;99.90;;;;;;5050481;28;20606;-72
2022/01/06 02:57:17;;;;;;;3.97;1.40;;;2.20;99.90;;;;;;5047000;28;20644;-72
2022/01/06 02:59:45;;;;;;;1.13;0.87;;;2.10;99.90;;;;;;5047371;28;20741;-72
2022/01/06 03:02:13;;;;;;;1.43;1.07;;;2.10;99.90;;;;;;5046752;28;20983;-72
2022/01/06 03:04:38;;;;;;;4.53;1.27;;;2.10;99.90;;;;;;5024842;28;21185;-72
2022/01/06 03:07:04;;;;;;;1.53;1.20;;;2.10;99.90;;;;;;5069830;28;20721;-72
2022/01/06 03:09:38;;;;;;;3.53;1.10;;;2.10;99.90;;;;;;5040770;28;20220;-72
2022/01/06 03:12:12;;;;;;;1.70;1.10;;;2.10;99.90;;;;;;5035233;28;20188;-71
2022/01/06 03:14:37;;;;;;;3.20;1.10;;;2.10;99.90;;;;;;5051072;28;20658;-71
2022/01/06 03:17:07;;;;;;;2.20;1.10;;;2.10;99.90;;;;;;5032994;28;20725;-72
2022/01/06 03:19:32;;;;;;;1.80;1.50;;;2.10;99.90;;;;;;5030437;28;20671;-72
2022/01/06 03:22:00;;;;;;;2.17;1.10;;;2.10;99.90;;;;;;5027749;28;20607;-71
2022/01/06 03:24:29;;;;;;;2.17;1.10;;;2.10;99.90;;;;;;5046305;28;20231;-72
2022/01/06 03:26:54;;;;;;;1.40;1.20;;;2.00;99.90;;;;;;5046370;28;20602;-72
2022/01/06 03:29:22;;;;;;;2.57;1.30;;;2.00;99.90;;;;;;5061929;28;20787;-73
2022/01/06 03:31:50;;;;;;;1.73;1.43;;;2.00;99.90;;;;;;5048453;28;20184;-72
2022/01/06 03:34:16;;;;;;;1.20;1.10;;;2.00;99.90;;;;;;5028196;28;20617;-72
2022/01/06 03:36:41;;;;;;;1.97;1.10;;;2.00;99.90;;;;;;5046759;28;20606;-72
2022/01/06 03:39:07;;;;;;;1.00;1.00;;;2.00;99.90;;;;;;5046042;28;20247;-71
2022/01/06 03:41:35;;;;;;;1.40;1.23;;;1.90;99.90;;;;;;5048995;28;20293;-72
2022/01/06 03:44:01;;;;;;;1.13;0.97;;;1.90;99.90;;;;;;5026280;28;20188;-72
2022/01/06 03:46:29;;;;;;;1.73;0.97;;;1.90;99.90;;;;;;5047713;28;20603;-72
2022/01/06 03:48:55;;;;;;;1.87;0.90;;;1.90;99.90;;;;;;5025535;28;20650;-71
2022/01/06 03:51:23;;;;;;;1.20;1.07;;;1.90;99.90;;;;;;5027489;28;20629;-72
2022/01/06 03:53:51;;;;;;;1.83;0.90;;;1.90;99.90;;;;;;5044833;28;20196;-72
2022/01/06 03:56:18;;;;;;;2.30;1.20;;;1.80;99.90;;;;;;5028073;28;20621;-73
2022/01/06 03:58:44;;;;;;;4.17;1.10;;;1.80;99.90;;;;;;5045032;28;20663;-72
2022/01/06 04:01:11;;;;;;;1.20;1.03;;;1.80;99.90;;;;;;5047402;28;20642;-72
2022/01/06 04:03:37;;;;;;;1.80;1.20;;;1.80;99.90;;;;;;5030324;28;21097;-72
2022/01/06 04:06:13;;;;;;;2.10;0.97;;;1.80;99.90;;;;;;5027035;28;20645;-72
2022/01/06 04:08:39;;;;;;;3.90;1.10;;;1.80;99.90;;;;;;5027776;28;20275;-72
2022/01/06 04:11:04;;;;;;;2.17;1.97;;;1.70;99.90;;;;;;5028081;28;20634;-73
2022/01/06 04:13:30;;;;;;;2.50;1.37;;;1.70;99.90;;;;;;5046585;28;20184;-72
2022/01/06 04:15:57;;;;;;;2.40;1.20;;;1.70;99.90;;;;;;5045008;28;20242;-72
2022/01/06 04:18:25;;;;;;;2.40;1.03;;;1.70;99.90;;;;;;5025676;28;20683;-73
2022/01/06 04:20:55;;;;;;;3.40;1.20;;;1.70;99.90;;;;;;5043497;28;20625;-72
2022/01/06 04:23:23;;;;;;;1.47;1.10;;;1.70;99.90;;;;;;5021821;28;20692;-72
2022/01/06 04:25:49;;;;;;;1.30;1.03;;;1.70;99.90;;;;;;5044759;28;20732;-72
2022/01/06 04:28:14;;;;;;;1.30;0.97;;;1.70;99.90;;;;;;5057953;28;20654;-72
2022/01/06 04:30:42;;;;;;;3.00;1.00;;;1.70;99.90;;;;;;5060752;28;20184;-72
2022/01/06 04:33:08;;;;;;;1.40;1.30;;;1.70;99.90;;;;;;5023259;28;20196;-72
2022/01/06 04:35:33;;;;;;;6.47;1.30;;;1.70;99.90;;;;;;5025460;28;21022;-72
2022/01/06 04:38:01;;;;;;;2.00;1.13;;;1.70;99.90;;;;;;5043225;28;20282;-73
2022/01/06 04:40:29;;;;;;;1.73;1.07;;;1.70;99.90;;;;;;5056978;28;20669;-72
2022/01/06 04:42:57;;;;;;;6.70;1.50;;;1.70;99.90;;;;;;5044908;28;20606;-72
2022/01/06 04:45:22;;;;;;;2.07;1.00;;;1.60;99.90;;;;;;5044830;28;20967;-73
2022/01/06 04:47:48;;;;;;;2.60;1.47;;;1.60;99.90;;;;;;5059737;28;20664;-73
2022/01/06 04:50:16;;;;;;;2.20;1.30;;;1.60;99.90;;;;;;5044653;28;20235;-72
2022/01/06 04:52:42;;;;;;;3.37;1.10;;;1.60;99.90;;;;;;5044455;28;20644;-72
2022/01/06 04:55:08;;;;;;;2.40;1.57;;;1.60;99.90;;;;;;5044539;28;20614;-72
2022/01/06 04:57:34;;;;;;;1.53;1.30;;;1.60;99.90;;;;;;5045353;28;20208;-72
2022/01/06 04:59:59;;;;;;;1.40;1.27;;;1.50;99.90;;;;;;5047699;28;20639;-73
2022/01/06 05:02:25;;;;;;;2.13;1.50;;;1.60;99.90;;;;;;5043560;28;20192;-72
2022/01/06 05:04:51;;;;;;;1.70;1.60;;;1.60;99.90;;;;;;5025981;28;20274;-72
2022/01/06 05:07:19;;;;;;;2.33;1.70;;;1.60;99.90;;;;;;5047133;28;20691;-72
2022/01/06 05:09:45;;;;;;;2.33;1.13;;;1.60;99.90;;;;;;5056651;28;20326;-72
2022/01/06 05:12:13;;;;;;;5.20;2.37;;;1.60;99.90;;;;;;5057790;28;20689;-72
2022/01/06 05:14:42;;;;;;;2.63;1.60;;;1.60;99.90;;;;;;5059251;28;20195;-74
2022/01/06 05:17:08;;;;;;;3.20;1.70;;;1.60;99.90;;;;;;5056205;28;20666;-73
2022/01/06 05:19:34;;;;;;;2.80;1.50;;;1.60;99.90;;;;;;5055531;28;20649;-73
2022/01/06 05:22:00;;;;;;;5.90;1.53;;;1.60;99.90;;;;;;5070992;28;20611;-72
2022/01/06 05:24:28;;;;;;;1.50;1.37;;;1.60;99.90;;;;;;5038072;28;20803;-73
2022/01/06 05:26:57;;;;;;;2.27;1.50;;;1.60;99.90;;;;;;5060218;28;20618;-72
2022/01/06 05:29:23;;;;;;;2.13;1.13;;;1.60;99.90;;;;;;5045943;28;20649;-72
2022/01/06 05:31:49;;;;;;;2.20;1.50;;;1.60;99.90;;;;;;5047042;28;20680;-72
2022/01/06 05:34:15;;;;;;;3.53;1.63;;;1.60;99.90;;;;;;5052155;28;20933;-72
2022/01/06 05:36:44;;;;;;;2.47;1.60;;;1.60;99.90;;;;;;5061313;28;20614;-72
2022/01/06 05:39:09;;;;;;;3.40;1.60;;;1.60;99.90;;;;;;5047291;28;21007;-72
2022/01/06 05:41:35;;;;;;;3.70;1.67;;;1.60;99.90;;;;;;5042361;28;20634;-72
2022/01/06 05:44:01;;;;;;;3.13;2.00;;;1.60;99.90;;;;;;5021998;28;20196;-73
2022/01/06 05:46:27;;;;;;;4.87;1.80;;;1.50;99.90;;;;;;5046375;28;20634;-72
2022/01/06 05:48:52;;;;;;;1.70;1.50;;;1.50;99.90;;;;;;5045770;28;20290;-72
2022/01/06 05:51:18;;;;;;;5.57;1.70;;;1.50;99.90;;;;;;5032141;28;20200;-72
2022/01/06 05:53:44;;;;;;;2.57;1.80;;;1.50;99.90;;;;;;5052609;28;20274;-72
2022/01/06 05:56:09;;;;;;;1.87;1.70;;;1.50;99.90;;;;;;5050167;28;20203;-72
2022/01/06 05:58:37;;;;;;;1.73;1.63;;;1.50;99.90;;;;;;5040091;28;20231;-73
2022/01/06 06:01:08;;;;;;;4.20;1.87;;;1.50;99.90;;;;;;5039969;28;20208;-71
2022/01/06 06:03:35;;;;;;;2.30;1.47;;;1.50;99.90;;;;;;5038421;28;20784;-72
2022/01/06 06:06:09;;;;;;;3.17;1.70;;;1.50;99.90;;;;;;5053436;28;20691;-72
2022/01/06 06:08:35;;;;;;;4.10;1.80;;;1.50;99.90;;;;;;5010330;28;21257;-71
2022/01/06 06:11:00;;;;;;;4.37;1.93;;;1.40;99.90;;;;;;5036170;28;20653;-72
2022/01/06 06:13:26;;;;;;;2.50;1.60;;;1.50;99.90;;;;;;5031896;28;20208;-72
2022/01/06 06:15:51;;;;;;;2.57;1.87;;;1.40;99.90;;;;;;5013548;28;20200;-71
2022/01/06 06:18:17;;;;;;;1.90;1.63;;;1.40;99.90;;;;;;5017005;28;20701;-72
2022/01/06 06:20:42;;;;;;;5.20;2.07;;;1.40;99.90;;;;;;5041109;28;20735;-71
2022/01/06 06:23:08;;;;;;;3.83;1.63;;;1.40;99.90;;;;;;5038450;28;20184;-71
2022/01/06 06:25:34;;;;;;;3.17;2.00;;;1.40;99.90;;;;;;5021239;28;20184;-72
2022/01/06 06:28:00;;;;;;;3.70;1.97;;;1.30;99.90;;;;;;5023750;28;20699;-71
2022/01/06 06:30:26;;;;;;;4.53;1.87;;;1.30;99.90;;;;;;5036976;28;20745;-71
2022/01/06 06:32:52;;;;;;;2.50;2.30;;;1.30;99.90;;;;;;5030391;28;21127;-71
2022/01/06 06:35:17;;;;;;;3.37;1.93;;;1.40;99.90;;;;;;5041357;28;20619;-71
2022/01/06 06:37:43;;;;;;;7.10;3.20;;;1.40;99.90;;;;;;5016715;28;20310;-71
2022/01/06 06:40:10;;;;;;;7.77;4.23;;;1.40;99.90;;;;;;5035985;28;20220;-74
2022/01/06 06:42:37;;;;;;;6.83;3.80;;;1.40;99.90;;;;;;5004518;28;20229;-71
2022/01/06 06:45:03;;;;;;;5.23;3.60;;;1.40;99.90;;;;;;5021024;28;20620;-71
2022/01/06 06:47:29;;;;;;;6.03;3.90;;;1.40;99.90;;;;;;5032492;28;20744;-71
2022/01/06 06:49:56;;;;;;;7.27;4.00;;;1.40;99.90;;;;;;5039651;28;20743;-72
2022/01/06 06:52:22;;;;;;;7.33;3.90;;;1.40;99.90;;;;;;5020693;28;20245;-71
2022/01/06 06:54:48;;;;;;;7.17;3.60;;;1.40;99.90;;;;;;5043498;28;20714;-71
2022/01/06 06:57:14;;;;;;;4.27;3.50;;;1.40;99.90;;;;;;5040705;28;20231;-71
2022/01/06 06:59:40;;;;;;;4.13;3.00;;;1.40;99.90;;;;;;5024925;28;20220;-72
2022/01/06 07:02:06;;;;;;;3.90;2.80;;;1.40;99.90;;;;;;5054296;28;20629;-71
2022/01/06 07:04:32;;;;;;;3.90;2.90;;;1.40;99.90;;;;;;5018772;28;20630;-73
2022/01/06 07:06:58;;;;;;;4.40;3.07;;;1.40;99.90;;;;;;5034938;28;21019;-71
2022/01/06 07:09:23;;;;;;;2.87;2.67;;;1.50;99.90;;;;;;5038952;28;20582;-71
2022/01/06 07:11:51;;;;;;;4.63;2.97;;;1.50;99.90;;;;;;5019411;28;20260;-71
2022/01/06 07:14:17;;;;;;;3.37;2.70;;;1.50;99.90;;;;;;5017325;28;20181;-72
2022/01/06 07:16:42;;;;;;;4.90;3.20;;;1.50;99.90;;;;;;5066163;28;20629;-72
2022/01/06 07:19:08;;;;;;;4.77;2.67;;;1.50;99.90;;;;;;5049923;28;20243;-71
2022/01/06 07:21:33;;;;;;;3.80;2.67;;;1.50;99.90;;;;;;5050261;28;20256;-71
2022/01/06 07:23:59;;;;;;;2.83;2.50;;;1.50;99.90;;;;;;5042494;28;20226;-71
2022/01/06 07:26:25;;;;;;;3.60;2.60;;;1.40;99.90;;;;;;5042426;28;20191;-71
2022/01/06 07:28:50;;;;;;;3.50;2.40;;;1.40;99.90;;;;;;5038230;28;20235;-71
2022/01/06 07:31:16;;;;;;;3.27;2.57;;;1.60;99.90;;;;;;5043609;28;20936;-72
2022/01/06 07:33:41;;;;;;;5.80;2.30;;;1.40;99.90;;;;;;5027082;28;20246;-71
2022/01/06 07:36:07;;;;;;;3.27;2.00;;;1.40;99.90;;;;;;5024026;28;20247;-71
2022/01/06 07:38:35;;;;;;;3.27;1.93;;;1.40;99.90;;;;;;5021891;28;20224;-72
2022/01/06 07:41:01;;;;;;;5.93;2.50;;;1.30;99.90;;;;;;5039792;28;20263;-71
2022/01/06 07:43:26;;;;;;;4.10;2.23;;;1.40;99.90;;;;;;5055000;28;20718;-72
2022/01/06 07:45:52;;;;;;;3.40;2.00;;;1.40;99.90;;;;;;5051709;28;20265;-71
2022/01/06 07:48:25;;;;;;;11.00;2.47;;;1.30;99.90;;;;;;5051285;28;20928;-71
2022/01/06 07:50:51;;;;;;;5.90;2.37;;;1.40;99.90;;;;;;5021723;28;20184;-71
2022/01/06 07:53:16;;;;;;;3.50;2.47;;;1.30;99.90;;;;;;5027128;28;20626;-71
2022/01/06 07:55:42;;;;;;;3.63;1.97;;;1.30;99.90;;;;;;5012899;28;20644;-72
2022/01/06 07:58:10;;;;;;;3.30;2.47;;;1.30;99.90;;;;;;5033735;28;20273;-72
2022/01/06 08:00:36;;;;;;;4.50;2.57;;;1.30;99.90;;;;;;5032941;28;20231;-71
2022/01/06 08:03:01;;;;;;;2.43;2.20;;;1.40;99.90;;;;;;5013483;28;20614;-72
2022/01/06 08:05:27;;;;;;;2.73;1.93;;;1.40;99.90;;;;;;5010557;28;20192;-71
2022/01/06 08:07:54;;;;;;;3.53;1.97;;;1.40;99.90;;;;;;5047241;28;20704;-71
2022/01/06 08:10:20;;;;;;;2.90;2.10;;;1.30;99.90;;;;;;5008388;28;21247;-71
2022/01/06 08:12:46;;;;;;;5.03;2.30;;;1.30;99.90;;;;;;5032183;28;20614;-71
2022/01/06 08:15:14;;;;;;;4.60;2.03;;;1.30;99.90;;;;;;5029931;28;20634;-71
2022/01/06 08:17:40;;;;;;;3.13;1.87;;;1.30;99.90;;;;;;5008869;28;20477;-71
2022/01/06 08:20:07;;;;;;;3.33;1.97;;;1.40;99.90;;;;;;5030484;28;20651;-71
2022/01/06 08:22:33;;;;;;;3.73;2.10;;;1.40;99.90;;;;;;5014655;28;20279;-71
2022/01/06 08:24:59;;;;;;;4.47;2.00;;;1.40;99.90;;;;;;5012797;28;20690;-71
2022/01/06 08:27:24;;;;;;;3.37;2.57;;;1.40;99.90;;;;;;5042802;28;20225;-72
2022/01/06 08:29:54;;;;;;;2.87;1.90;;;1.60;99.90;;;;;;5028416;28;21276;-71
2022/01/06 08:32:20;;;;;;;3.73;2.30;;;1.40;99.90;;;;;;5032254;28;20196;-71
2022/01/06 08:34:46;;;;;;;4.50;2.30;;;1.50;99.90;;;;;;5030812;28;20634;-72
2022/01/06 08:37:12;;;;;;;1.93;1.80;;;1.40;99.90;;;;;;5034108;28;20660;-74
2022/01/06 08:39:38;;;;;;;3.60;1.87;;;1.50;99.90;;;;;;5015048;28;20231;-71
2022/01/06 08:42:04;;;;;;;5.03;2.07;;;1.50;99.90;;;;;;5035404;28;20938;-72
2022/01/06 08:44:29;;;;;;;3.80;2.43;;;1.40;99.90;;;;;;5012285;28;20294;-72
2022/01/06 08:47:00;;;;;;;3.60;2.30;;;1.50;99.90;;;;;;5030851;28;20614;-72
2022/01/06 08:49:27;;;;;;;3.10;2.10;;;1.50;99.90;;;;;;5028296;28;20263;-73
2022/01/06 08:51:52;;;;;;;2.83;2.10;;;1.50;99.90;;;;;;5017973;28;21446;-72
2022/01/06 08:54:18;;;;;;;2.33;1.97;;;1.60;99.90;;;;;;5047043;28;20725;-72
2022/01/06 08:56:44;;;;;;;3.43;1.93;;;1.60;99.90;;;;;;5012731;28;20195;-72
2022/01/06 08:59:09;;;;;;;4.70;1.90;;;1.70;99.90;;;;;;5048899;28;20242;-72
2022/01/06 09:01:36;;;;;;;5.03;2.30;;;1.70;99.90;;;;;;5033332;28;20200;-71
2022/01/06 09:04:02;;;;;;;2.70;2.10;;;1.80;99.90;;;;;;5032644;28;20196;-71
2022/01/06 09:06:27;;;;;;;4.93;2.43;;;1.70;99.90;;;;;;5013690;28;20657;-72
2022/01/06 09:08:53;;;;;;;3.03;2.70;;;1.70;99.90;;;;;;5035702;28;20658;-72
2022/01/06 09:11:19;;;;;;;4.63;1.90;;;1.80;99.90;;;;;;5046512;28;20251;-71
2022/01/06 09:13:44;;;;;;;4.73;2.13;;;1.90;99.90;;;;;;5013373;28;20184;-71
2022/01/06 09:16:10;;;;;;;2.00;1.80;;;1.90;99.90;;;;;;5046341;28;20211;-72
2022/01/06 09:18:37;;;;;;;2.40;1.97;;;2.00;99.90;;;;;;5029936;28;20232;-72
2022/01/06 09:21:03;;;;;;;5.80;2.13;;;2.00;99.90;;;;;;5028864;28;20630;-72
2022/01/06 09:23:39;;;;;;;5.00;1.80;;;2.10;99.90;;;;;;5027469;28;20630;-72
2022/01/06 09:26:05;;;;;;;2.43;1.83;;;2.10;99.90;;;;;;5012698;28;20645;-70
2022/01/06 09:28:30;;;;;;;2.87;1.73;;;2.20;99.90;;;;;;5033464;28;20656;-72
2022/01/06 09:30:57;;;;;;;4.00;1.70;;;2.20;99.90;;;;;;5003928;28;20291;-71
2022/01/06 09:33:39;;;;;;;3.97;2.50;;;2.30;99.90;;;;;;5027871;28;20192;-73
2022/01/06 09:36:05;;;;;;;2.67;1.80;;;2.30;99.90;;;;;;5018851;28;20712;-73
2022/01/06 09:38:31;;;;;;;2.97;1.67;;;2.40;99.90;;;;;;5039112;28;20654;-73
2022/01/06 09:40:56;;;;;;;10.10;2.40;;;2.40;99.90;;;;;;5037063;28;20208;-73
2022/01/06 09:43:26;;;;;;;2.10;1.87;;;2.40;99.90;;;;;;5028540;28;20203;-74
2022/01/06 09:45:52;;;;;;;3.27;1.73;;;2.50;99.90;;;;;;5029455;28;20196;-71
2022/01/06 09:48:22;;;;;;;1.73;1.60;;;2.50;99.90;;;;;;5012730;28;20731;-71
2022/01/06 09:50:55;;;;;;;5.40;1.97;;;2.60;99.90;;;;;;5034927;28;21018;-72
2022/01/06 09:53:21;;;;;;;2.67;1.90;;;2.60;99.90;;;;;;5034418;28;20664;-71
2022/01/06 09:55:47;;;;;;;3.70;1.73;;;2.70;99.90;;;;;;5027383;28;20630;-72
2022/01/06 09:58:20;;;;;;;4.30;1.80;;;2.70;99.90;;;;;;5008141;28;20212;-73
2022/01/06 10:00:55;;;;;;;4.60;1.93;;;2.80;99.90;;;;;;5026405;28;20713;-72
2022/01/06 10:03:37;;;;;;;4.40;2.10;;;2.80;99.90;;;;;;5011153;28;21215;-73
2022/01/06 10:06:27;;;;;;;3.87;1.87;;;2.80;99.90;;;;;;5028381;28;21278;-71
2022/01/06 10:09:04;;;;;;;4.60;2.10;;;2.90;99.90;;;;;;5012215;28;20973;-73
2022/01/06 10:11:33;;;;;;;2.20;1.77;;;2.90;99.90;;;;;;5027681;28;20637;-73
2022/01/06 10:14:05;;;;;;;2.90;1.77;;;3.00;99.90;;;;;;5008969;28;20941;-71
2022/01/06 10:16:34;;;;;;;6.53;1.83;;;3.10;99.90;;;;;;5028422;28;20791;-71
2022/01/06 10:19:12;;;;;;;2.70;1.60;;;3.10;99.90;;;;;;5015540;28;21060;-71
2022/01/06 10:21:57;;;;;;;2.70;1.87;;;3.20;99.90;;;;;;5034120;28;20873;-73
2022/01/06 10:24:27;;;;;;;3.83;1.80;;;3.20;99.90;;;;;;5011590;28;21196;-71
2022/01/06 10:27:01;;;;;;;2.00;1.47;;;3.30;99.90;;;;;;5035704;28;20613;-72
2022/01/06 10:29:41;;;;;;;4.30;1.93;;;3.30;99.90;;;;;;5027281;28;20747;-72
2022/01/06 10:32:18;;;;;;;3.90;2.03;;;3.40;99.90;;;;;;5004838;28;21295;-73
2022/01/06 10:34:47;;;;;;;2.40;1.53;;;3.50;99.90;;;;;;5033377;28;20698;-71
2022/01/06 10:37:21;;;;;;;3.30;1.33;;;3.60;99.90;;;;;;5013405;28;20666;-71
2022/01/06 10:39:52;;;;;;;6.53;2.57;;;3.70;99.90;;;;;;5015916;28;20756;-72
2022/01/06 10:42:25;;;;;;;6.10;1.50;;;3.70;99.90;;;;;;5046201;28;20634;-72
2022/01/06 10:45:03;;;;;;;2.70;1.40;;;3.80;99.90;;;;;;5008786;28;21204;-72
2022/01/06 10:47:41;;;;;;;3.77;1.33;;;3.90;99.90;;;;;;5027920;28;20650;-73
2022/01/06 10:50:17;;;;;;;3.93;1.83;;;3.90;99.90;;;;;;5035276;28;20638;-72
2022/01/06 10:53:05;;;;;;;2.10;1.30;;;4.00;99.90;;;;;;5032422;28;20661;-73
2022/01/06 10:55:39;;;;;;;3.20;1.23;;;4.10;99.90;;;;;;5033975;28;20587;-72
2022/01/06 10:58:19;;;;;;;2.90;1.20;;;4.20;99.90;;;;;;5031033;28;20704;-73
2022/01/06 11:00:53;;;;;;;3.73;1.70;;;4.30;99.90;;;;;;5029092;28;20685;-73
2022/01/06 11:03:24;;;;;;;1.87;1.17;;;4.30;99.90;;;;;;5032331;28;20597;-73
2022/01/06 11:05:54;;;;;;;4.67;1.60;;;4.40;99.90;;;;;;5019947;28;20602;-73
2022/01/06 11:08:25;;;;;;;1.97;1.23;;;4.50;99.90;;;;;;5036654;28;20632;-72
2022/01/06 11:13:41;;;;;;;3.07;1.23;;;4.60;99.90;;;;;;5031184;28;20630;-72
2022/01/06 11:16:14;;;;;;;1.70;1.37;;;4.70;99.90;;;;;;5034967;28;20629;-72
2022/01/06 11:18:59;;;;;;;2.83;1.37;;;4.70;99.90;;;;;;5034319;28;20658;-72
2022/01/06 11:21:39;;;;;;;3.13;1.30;;;4.80;99.90;;;;;;5037430;28;20648;-72
2022/01/06 11:24:11;;;;;;;5.57;1.40;;;4.80;99.90;;;;;;5037137;28;20642;-72
2022/01/06 11:26:37;;;;;;;2.30;1.37;;;4.80;99.90;;;;;;5038778;28;20625;-72
2022/01/06 11:29:04;;;;;;;6.30;2.13;;;4.80;99.90;;;;;;5027316;28;20744;-72
2022/01/06 11:31:41;;;;;;;4.80;1.50;;;4.90;99.90;;;;;;5029237;28;21169;-72
2022/01/06 11:34:19;;;;;;;4.30;1.43;;;4.80;99.90;;;;;;5029081;28;20664;-72
2022/01/06 11:36:46;;;;;;;3.37;1.80;;;4.90;99.90;;;;;;5036227;28;20633;-72
2022/01/06 11:39:42;;;;;;;2.50;1.47;;;4.90;99.90;;;;;;5012870;28;21325;-73
2022/01/06 11:42:22;;;;;;;2.23;1.07;;;4.90;99.90;;;;;;5019891;28;21788;-73
2022/01/06 11:44:51;;;;;;;2.77;1.17;;;4.90;99.90;;;;;;5010996;28;20622;-72
2022/01/06 11:47:32;;;;;;;3.37;1.40;;;5.00;99.90;;;;;;5038453;28;20638;-72
2022/01/06 11:50:24;;;;;;;2.23;0.93;;;5.00;99.90;;;;;;5029426;28;22086;-72
2022/01/06 11:52:54;;;;;;;4.97;1.50;;;5.00;99.90;;;;;;5011122;28;20728;-72
2022/01/06 11:55:22;;;;;;;2.33;1.30;;;5.10;99.90;;;;;;5034856;28;20657;-72
2022/01/06 11:57:50;;;;;;;7.10;1.67;;;5.10;99.90;;;;;;5040538;28;20673;-72
2022/01/06 12:00:25;;;;;;;4.07;1.50;;;5.10;99.90;;;;;;5040706;28;20728;-72
2022/01/06 12:03:06;;;;;;;2.83;1.30;;;5.10;99.90;;;;;;5010956;28;20730;-72
2022/01/06 12:05:45;;;;;;;4.80;1.27;;;5.10;99.90;;;;;;5016124;28;21259;-72
2022/01/06 12:08:11;;;;;;;2.13;1.30;;;5.10;99.90;;;;;;5034632;28;21217;-72
2022/01/06 12:10:48;;;;;;;1.83;1.30;;;5.10;99.90;;;;;;5011476;28;20954;-72
2022/01/06 12:13:17;;;;;;;2.40;1.10;;;5.10;99.90;;;;;;5053641;28;20776;-73
2022/01/06 12:15:48;;;;;;;1.40;1.30;;;5.20;99.90;;;;;;5049563;28;20737;-72
2022/01/06 12:18:22;;;;;;;3.30;1.50;;;5.20;99.90;;;;;;5038823;28;20670;-73
2022/01/06 12:20:49;;;;;;;1.33;1.13;;;5.20;99.90;;;;;;5038062;28;20737;-73
2022/01/06 12:23:16;;;;;;;2.33;1.30;;;5.20;99.90;;;;;;5032438;28;21158;-73
2022/01/06 12:25:46;;;;;;;1.80;1.70;;;5.20;99.90;;;;;;5017648;28;20674;-72
2022/01/06 12:28:12;;;;;;;0.90;0.90;;;5.20;99.90;;;;;;5030958;28;20738;-70
2022/01/06 12:30:40;;;;;;;1.60;1.30;;;5.30;99.90;;;;;;5052153;28;20761;-73
2022/01/06 12:33:08;;;;;;;5.63;1.50;;;5.30;99.90;;;;;;5023519;28;20558;-73
2022/01/06 12:35:55;;;;;;;1.30;1.20;;;5.30;99.90;;;;;;5017739;28;20688;-73
2022/01/06 12:38:28;;;;;;;3.80;1.30;;;5.40;99.90;;;;;;5032300;28;20666;-75
2022/01/06 12:40:55;;;;;;;1.67;1.17;;;5.40;99.90;;;;;;5034958;28;20614;-75
2022/01/06 12:43:27;;;;;;;2.13;1.43;;;5.50;99.90;;;;;;5037943;28;20629;-75
2022/01/06 12:46:15;;;;;;;2.33;1.40;;;5.50;99.90;;;;;;5038738;28;20690;-76
2022/01/06 12:48:43;;;;;;;1.80;1.40;;;5.60;99.90;;;;;;5013912;28;20673;-75
2022/01/06 12:51:12;;;;;;;2.77;1.20;;;5.60;99.90;;;;;;5052033;28;21124;-75
2022/01/06 12:53:43;;;;;;;4.10;1.50;;;5.60;99.90;;;;;;5036724;28;20607;-75
2022/01/06 12:56:22;;;;;;;3.07;1.20;;;5.50;99.90;;;;;;5014557;28;21033;-76
2022/01/06 12:58:47;;;;;;;2.53;0.90;;;5.50;99.90;;;;;;5012124;28;22259;-76
2022/01/06 13:01:13;;;;;;;2.47;1.83;;;5.60;99.90;;;;;;5032299;28;20748;-76
2022/01/06 13:03:40;;;;;;;2.50;1.40;;;5.60;99.90;;;;;;5033625;28;20245;-76
2022/01/06 13:06:11;;;;;;;1.80;1.20;;;5.60;99.90;;;;;;5034567;28;20233;-75
2022/01/06 13:08:48;;;;;;;1.23;1.03;;;5.60;99.90;;;;;;5012621;28;21180;-77
2022/01/06 13:11:14;;;;;;;1.47;0.90;;;5.70;99.90;;;;;;5033810;28;20622;-77
2022/01/06 13:13:52;;;;;;;3.33;1.10;;;5.70;99.90;;;;;;5006773;28;20618;-75
2022/01/06 13:16:25;;;;;;;2.00;1.20;;;5.70;99.90;;;;;;5014148;28;20195;-76